createdAt,value
2018-08-09T00:01:18.267Z,92.10
2018-08-09T00:06:20.885Z,92.50
2018-08-09T00:08:49.124Z,92.50
2018-08-09T00:11:17.947Z,92.80
2018-08-09T00:13:46.908Z,92.90
2018-08-09T00:16:15.147Z,93.50
2018-08-09T00:18:44.072Z,93.40
2018-08-09T00:21:12.345Z,93.70
2018-08-09T00:23:40.573Z,93.70
2018-08-09T00:26:08.833Z,94.20
2018-08-09T00:28:37.072Z,94.20
2018-08-09T00:31:05.706Z,94.20
2018-08-09T00:33:33.953Z,94.20
2018-08-09T00:36:02.211Z,94.10
2018-08-09T00:38:30.546Z,94.10
2018-08-09T00:40:58.818Z,94.50
2018-08-09T00:43:27.103Z,94.60
2018-08-09T00:45:55.470Z,94.80
2018-08-09T00:48:24.610Z,95.10
2018-08-09T00:50:52.918Z,95.40
2018-08-09T00:53:21.937Z,95.70
2018-08-09T00:55:50.204Z,95.50
2018-08-09T00:58:20.087Z,95.40
2018-08-09T01:00:55.385Z,95.50
2018-08-09T01:03:23.697Z,95.40
2018-08-09T01:05:52.354Z,95.60
2018-08-09T01:08:20.609Z,95.70
2018-08-09T01:10:48.857Z,95.80
2018-08-09T01:13:17.841Z,95.80
2018-08-09T01:15:46.066Z,96.00
2018-08-09T01:18:15.018Z,96.00
2018-08-09T01:20:43.239Z,96.60
2018-08-09T01:23:12.321Z,96.60
2018-08-09T01:25:40.645Z,96.30
2018-08-09T01:28:08.890Z,96.30
2018-08-09T01:33:15.350Z,96.40
2018-08-09T01:35:43.575Z,97.30
2018-08-09T01:38:11.856Z,97.50
2018-08-09T01:40:40.707Z,97.50
2018-08-09T01:43:20.323Z,97.40
2018-08-09T01:45:48.569Z,97.70
2018-08-09T01:48:17.654Z,97.90
2018-08-09T01:50:46.494Z,98.60
2018-08-09T01:53:15.183Z,98.70
2018-08-09T01:55:43.564Z,98.70
2018-08-09T01:58:11.781Z,98.60
2018-08-09T02:00:40.024Z,98.90
2018-08-09T02:03:08.259Z,98.70
2018-08-09T02:05:37.332Z,99.10
2018-08-09T02:08:05.637Z,99.30
2018-08-09T02:10:34.405Z,99.30
2018-08-09T02:13:04.936Z,99.40
2018-08-09T02:15:33.186Z,99.40
2018-08-09T02:18:01.937Z,99.10
2018-08-09T02:20:30.185Z,99.50
2018-08-09T02:22:59.402Z,99.90
2018-08-09T02:25:27.670Z,99.90
2018-08-09T02:27:56.485Z,99.90
2018-08-09T02:30:25.229Z,99.90
2018-08-09T02:32:54.008Z,99.90
2018-08-09T02:35:22.277Z,99.90
2018-08-09T02:37:50.498Z,99.90
2018-08-09T02:40:19.360Z,99.90
2018-08-09T02:42:47.567Z,99.90
2018-08-09T02:45:15.771Z,99.90
2018-08-09T02:47:44.474Z,99.90
2018-08-09T02:50:12.813Z,99.90
2018-08-09T02:52:41.897Z,99.90
2018-08-09T02:55:10.143Z,99.90
2018-08-09T02:57:38.363Z,99.90
2018-08-09T03:00:07.009Z,99.90
2018-08-09T03:02:35.451Z,99.90
2018-08-09T03:05:04.596Z,99.90
2018-08-09T03:07:32.859Z,99.90
2018-08-09T03:10:01.112Z,99.90
2018-08-09T03:12:29.385Z,99.90
2018-08-09T03:14:57.999Z,99.90
2018-08-09T03:17:26.537Z,99.90
2018-08-09T03:19:55.306Z,99.90
2018-08-09T03:22:23.599Z,99.90
2018-08-09T03:24:52.327Z,99.90
2018-08-09T03:27:20.556Z,99.90
2018-08-09T03:29:49.381Z,99.90
2018-08-09T03:32:18.499Z,99.90
2018-08-09T03:34:47.281Z,99.90
2018-08-09T03:37:15.527Z,99.90
2018-08-09T03:39:43.757Z,99.90
2018-08-09T03:42:12.033Z,99.90
2018-08-09T03:44:40.372Z,99.90
2018-08-09T03:47:09.140Z,99.90
2018-08-09T03:49:37.369Z,99.90
2018-08-09T03:52:05.937Z,99.90
2018-08-09T03:54:34.458Z,99.90
2018-08-09T03:57:02.711Z,99.90
2018-08-09T03:59:30.989Z,99.90
2018-08-09T04:01:59.226Z,99.90
2018-08-09T04:04:28.425Z,99.90
2018-08-09T04:06:56.641Z,99.90
2018-08-09T04:09:25.190Z,99.90
2018-08-09T04:11:53.755Z,99.90
2018-08-09T04:14:22.661Z,99.90
2018-08-09T04:16:50.899Z,99.90
2018-08-09T04:19:19.387Z,99.90
2018-08-09T04:21:47.614Z,99.90
2018-08-09T04:24:15.816Z,99.90
2018-08-09T04:26:44.180Z,99.90
2018-08-09T04:29:12.482Z,99.90
2018-08-09T04:31:47.878Z,99.90
2018-08-09T04:34:16.697Z,99.90
2018-08-09T04:36:44.978Z,99.90
2018-08-09T04:39:13.245Z,99.90
2018-08-09T04:41:41.560Z,99.90
2018-08-09T04:44:10.229Z,99.90
2018-08-09T04:46:42.473Z,99.90
2018-08-09T04:49:10.781Z,99.90
2018-08-09T04:51:39.008Z,99.90
2018-08-09T04:54:07.645Z,99.90
2018-08-09T04:56:35.917Z,99.90
2018-08-09T04:59:04.158Z,99.90
2018-08-09T05:01:32.401Z,99.90
2018-08-09T05:04:01.176Z,99.90
2018-08-09T05:06:29.413Z,99.90
2018-08-09T05:08:57.669Z,99.90
2018-08-09T05:11:26.517Z,99.90
2018-08-09T05:13:55.273Z,99.90
2018-08-09T05:16:23.593Z,99.90
2018-08-09T05:18:52.605Z,99.90
2018-08-09T05:21:20.889Z,99.90
2018-08-09T05:23:49.122Z,99.90
2018-08-09T05:26:17.449Z,99.90
2018-08-09T05:28:46.241Z,99.90
2018-08-09T05:31:14.633Z,99.90
2018-08-09T05:33:43.345Z,99.90
2018-08-09T05:36:12.266Z,99.90
2018-08-09T05:38:40.567Z,99.90
2018-08-09T05:41:08.814Z,99.90
2018-08-09T05:43:37.077Z,99.90
2018-08-09T05:46:05.369Z,99.90
2018-08-09T05:48:34.409Z,99.90
2018-08-09T05:51:02.669Z,99.90
2018-08-09T05:53:32.021Z,99.90
2018-08-09T05:56:00.505Z,99.90
2018-08-09T05:58:34.837Z,99.90
2018-08-09T06:01:03.061Z,99.90
2018-08-09T06:03:31.401Z,99.90
2018-08-09T06:05:59.860Z,99.90
2018-08-09T06:08:28.105Z,99.90
2018-08-09T06:10:56.380Z,99.90
2018-08-09T06:13:25.226Z,99.90
2018-08-09T06:15:53.487Z,99.90
2018-08-09T06:18:22.049Z,99.90
2018-08-09T06:20:50.285Z,99.90
2018-08-09T06:26:02.277Z,99.90
2018-08-09T06:28:30.571Z,99.90
2018-08-09T06:30:59.307Z,99.90
2018-08-09T06:33:27.565Z,99.90
2018-08-09T06:35:55.821Z,99.90
2018-08-09T06:38:24.272Z,99.60
2018-08-09T06:40:52.526Z,99.20
2018-08-09T06:43:20.931Z,99.10
2018-08-09T06:45:49.232Z,98.10
2018-08-09T06:48:19.410Z,97.40
2018-08-09T06:50:48.041Z,97.30
2018-08-09T06:53:16.694Z,96.00
2018-08-09T06:55:45.070Z,96.00
2018-08-09T06:58:13.917Z,95.60
2018-08-09T07:00:42.220Z,94.60
2018-08-09T07:03:10.457Z,94.40
2018-08-09T07:05:38.933Z,93.80
2018-08-09T07:08:07.248Z,92.70
2018-08-09T07:10:36.066Z,90.80
2018-08-09T07:13:13.248Z,89.50
2018-08-09T07:15:41.540Z,88.50
2018-08-09T07:18:10.778Z,86.30
2018-08-09T07:20:39.053Z,85.90
2018-08-09T07:23:07.304Z,83.40
2018-08-09T07:25:36.185Z,80.60
2018-08-09T07:28:04.780Z,80.20
2018-08-09T07:30:33.207Z,78.70
2018-08-09T07:33:01.937Z,79.50
2018-08-09T07:35:30.225Z,76.90
2018-08-09T07:37:58.685Z,74.10
2018-08-09T07:40:26.972Z,68.70
2018-08-09T07:42:55.281Z,64.90
2018-08-09T07:45:24.113Z,62.20
2018-08-09T07:47:53.641Z,60.90
2018-08-09T07:50:22.547Z,59.50
2018-08-09T07:52:51.359Z,57.70
2018-08-09T07:55:19.624Z,56.30
2018-08-09T07:57:47.876Z,55.40
2018-08-09T08:00:16.166Z,52.60
2018-08-09T08:02:44.532Z,51.10
2018-08-09T08:05:13.182Z,50.60
2018-08-09T08:07:42.493Z,49.40
2018-08-09T08:10:10.888Z,47.80
2018-08-09T08:12:39.345Z,46.20
2018-08-09T08:15:09.165Z,47.20
2018-08-09T08:17:50.492Z,44.00
2018-08-09T08:20:18.737Z,47.00
2018-08-09T08:22:48.027Z,46.80
2018-08-09T08:25:16.802Z,45.20
2018-08-09T08:27:45.051Z,44.10
2018-08-09T08:30:14.374Z,41.30
2018-08-09T08:32:43.071Z,42.20
2018-08-09T08:35:11.634Z,41.40
2018-08-09T08:37:40.521Z,42.40
2018-08-09T08:40:09.150Z,41.70
2018-08-09T08:42:37.948Z,43.80
2018-08-09T08:45:08.515Z,44.10
2018-08-09T08:47:36.744Z,44.10
2018-08-09T08:50:04.995Z,43.00
2018-08-09T08:52:33.515Z,40.10
2018-08-09T08:55:02.261Z,38.50
2018-08-09T08:57:30.990Z,39.80
2018-08-09T08:59:59.221Z,40.10
2018-08-09T09:02:27.474Z,39.20
2018-08-09T09:04:56.370Z,39.60
2018-08-09T09:07:24.564Z,39.80
2018-08-09T09:09:52.779Z,39.10
2018-08-09T09:12:21.017Z,38.70
2018-08-09T09:14:49.705Z,37.00
2018-08-09T09:17:17.914Z,35.50
2018-08-09T09:19:46.855Z,35.20
2018-08-09T09:22:15.107Z,34.10
2018-08-09T09:24:44.059Z,33.50
2018-08-09T09:29:41.133Z,34.30
2018-08-09T09:32:09.396Z,36.20
2018-08-09T09:34:37.642Z,35.10
2018-08-09T09:37:05.950Z,36.80
2018-08-09T09:39:34.170Z,35.60
2018-08-09T09:42:02.509Z,35.20
2018-08-09T09:44:30.807Z,34.10
2018-08-09T09:46:59.255Z,33.10
2018-08-09T09:49:28.240Z,34.00
2018-08-09T09:51:56.473Z,33.50
2018-08-09T09:54:25.408Z,32.70
2018-08-09T09:56:53.635Z,32.10
2018-08-09T09:59:21.858Z,31.20
2018-08-09T10:01:50.177Z,31.20
2018-08-09T10:04:19.267Z,30.80
2018-08-09T10:06:47.523Z,28.60
2018-08-09T10:09:15.747Z,28.50
2018-08-09T10:11:44.012Z,29.10
2018-08-09T10:14:12.795Z,29.50
2018-08-09T10:16:41.049Z,28.40
2018-08-09T10:19:10.428Z,29.20
2018-08-09T10:21:38.709Z,28.90
2018-08-09T10:24:06.923Z,27.50
2018-08-09T10:26:35.761Z,28.40
2018-08-09T10:29:03.992Z,28.60
2018-08-09T10:31:32.226Z,27.90
2018-08-09T10:34:00.474Z,27.60
2018-08-09T10:36:28.721Z,28.00
2018-08-09T10:38:57.237Z,29.40
2018-08-09T10:41:25.479Z,29.50
2018-08-09T10:43:54.274Z,28.90
2018-08-09T10:46:22.988Z,28.90
2018-08-09T10:48:51.237Z,28.30
2018-08-09T10:51:19.453Z,28.10
2018-08-09T10:53:48.377Z,28.30
2018-08-09T10:56:16.630Z,26.80
2018-08-09T10:58:44.873Z,27.60
2018-08-09T11:01:13.149Z,27.60
2018-08-09T11:03:41.405Z,27.90
2018-08-09T11:06:10.213Z,27.60
2018-08-09T11:08:38.445Z,28.40
2018-08-09T11:11:11.659Z,29.60
2018-08-09T11:13:42.293Z,29.20
2018-08-09T11:16:10.894Z,28.80
2018-08-09T11:18:39.864Z,28.70
2018-08-09T11:21:08.119Z,27.10
2018-08-09T11:23:36.366Z,27.10
2018-08-09T11:26:04.876Z,26.40
2018-08-09T11:28:33.129Z,27.10
2018-08-09T11:31:01.367Z,27.20
2018-08-09T11:33:29.616Z,25.70
2018-08-09T11:35:58.561Z,24.80
2018-08-09T11:38:26.790Z,25.40
2018-08-09T11:40:55.020Z,25.60
2018-08-09T11:43:23.468Z,25.40
2018-08-09T11:45:51.694Z,25.10
2018-08-09T11:48:20.002Z,25.20
2018-08-09T11:50:48.221Z,25.00
2018-08-09T11:53:16.811Z,25.70
2018-08-09T11:55:45.080Z,24.90
2018-08-09T11:58:13.286Z,26.30
2018-08-09T12:00:41.506Z,25.60
2018-08-09T12:03:09.761Z,25.00
2018-08-09T12:05:38.441Z,24.80
2018-08-09T12:08:06.634Z,24.50
2018-08-09T12:10:35.322Z,25.70
2018-08-09T12:13:06.190Z,25.30
2018-08-09T12:15:34.387Z,25.60
2018-08-09T12:18:03.110Z,25.30
2018-08-09T12:20:31.310Z,25.70
2018-08-09T12:22:59.562Z,24.80
2018-08-09T12:25:37.139Z,25.60
2018-08-09T12:28:06.107Z,25.50
2018-08-09T12:30:34.284Z,26.30
2018-08-09T12:33:02.495Z,26.50
2018-08-09T12:35:30.855Z,25.70
2018-08-09T12:37:59.050Z,26.60
2018-08-09T12:40:27.333Z,27.60
2018-08-09T12:42:55.535Z,25.30
2018-08-09T12:45:23.742Z,26.30
2018-08-09T12:47:51.951Z,27.00
2018-08-09T12:50:20.207Z,26.30
2018-08-09T12:52:49.275Z,26.60
2018-08-09T12:55:17.555Z,27.70
2018-08-09T12:57:45.796Z,27.00
2018-08-09T13:00:14.304Z,27.90
2018-08-09T13:02:42.670Z,27.40
2018-08-09T13:05:12.515Z,28.20
2018-08-09T13:07:41.047Z,28.70
2018-08-09T13:10:10.779Z,30.00
2018-08-09T13:12:39.010Z,28.70
2018-08-09T13:15:10.874Z,28.30
2018-08-09T13:17:44.622Z,28.50
2018-08-09T13:20:16.779Z,29.80
2018-08-09T13:29:46.266Z,30.00
2018-08-09T13:32:14.472Z,34.10
2018-08-09T13:34:42.681Z,33.00
2018-08-09T13:37:11.031Z,33.40
2018-08-09T13:39:39.300Z,34.90
2018-08-09T13:42:07.557Z,32.90
2018-08-09T13:44:35.785Z,33.30
2018-08-09T13:47:04.003Z,34.60
2018-08-09T13:49:37.808Z,33.50
2018-08-09T13:52:06.007Z,33.50
2018-08-09T13:54:34.770Z,33.70
2018-08-09T13:57:03.003Z,34.00
2018-08-09T13:59:31.232Z,35.00
2018-08-09T14:01:59.442Z,34.60
2018-08-09T14:04:28.429Z,35.10
2018-08-09T14:06:56.641Z,35.30
2018-08-09T14:09:24.842Z,34.60
2018-08-09T14:11:53.475Z,34.70
2018-08-09T14:14:21.990Z,34.70
2018-08-09T14:16:50.232Z,34.60
2018-08-09T14:19:19.112Z,34.70
2018-08-09T14:21:47.351Z,33.70
2018-08-09T14:24:15.669Z,34.70
2018-08-09T14:26:44.117Z,34.10
2018-08-09T14:29:12.340Z,36.40
2018-08-09T14:34:10.731Z,36.30
2018-08-09T14:36:38.979Z,35.20
2018-08-09T14:39:08.921Z,34.80
2018-08-09T14:41:37.719Z,34.50
2018-08-09T14:44:06.257Z,34.10
2018-08-09T14:46:34.687Z,36.00
2018-08-09T14:49:03.135Z,33.00
2018-08-09T14:51:31.504Z,33.10
2018-08-09T14:54:00.060Z,34.30
2018-08-09T14:56:28.286Z,32.80
2018-08-09T14:58:56.526Z,34.80
2018-08-09T15:01:33.408Z,33.00
2018-08-09T15:04:02.319Z,35.30
2018-08-09T15:06:30.584Z,33.00
2018-08-09T15:08:58.786Z,32.60
2018-08-09T15:11:27.057Z,32.90
2018-08-09T15:13:55.859Z,32.90
2018-08-09T15:16:24.095Z,34.70
2018-08-09T15:18:52.860Z,33.70
2018-08-09T15:21:21.055Z,32.20
2018-08-09T15:23:49.233Z,31.80
2018-08-09T15:26:17.439Z,33.70
2018-08-09T15:28:45.630Z,32.90
2018-08-09T15:31:14.448Z,32.70
2018-08-09T15:33:42.657Z,32.40
2018-08-09T15:36:11.410Z,33.70
2018-08-09T15:38:39.640Z,30.80
2018-08-09T15:41:07.878Z,32.10
2018-08-09T15:43:36.126Z,31.50
2018-08-09T15:46:04.363Z,32.80
2018-08-09T15:48:33.618Z,31.70
2018-08-09T15:51:01.834Z,32.00
2018-08-09T15:53:30.712Z,32.50
2018-08-09T15:55:58.923Z,32.80
2018-08-09T15:58:27.191Z,32.40
2018-08-09T16:00:55.417Z,32.90
2018-08-09T16:03:23.611Z,32.40
2018-08-09T16:05:52.331Z,32.00
2018-08-09T16:08:20.542Z,31.90
2018-08-09T16:10:48.743Z,33.50
2018-08-09T16:13:18.563Z,32.00
2018-08-09T16:15:47.626Z,31.50
2018-08-09T16:18:47.689Z,32.60
2018-08-09T16:21:16.626Z,32.80
2018-08-09T16:23:45.989Z,32.80
2018-08-09T16:26:14.899Z,33.30
2018-08-09T16:28:43.543Z,32.90
2018-08-09T16:31:12.234Z,33.40
2018-08-09T16:33:40.858Z,33.30
2018-08-09T16:36:09.153Z,35.40
2018-08-09T16:38:37.429Z,34.00
2018-08-09T16:41:05.719Z,35.60
2018-08-09T16:43:34.351Z,34.10
2018-08-09T16:46:02.626Z,33.70
2018-08-09T16:48:30.936Z,34.40
2018-08-09T16:50:59.187Z,34.90
2018-08-09T16:53:27.743Z,33.20
2018-08-09T16:55:56.027Z,34.90
2018-08-09T16:58:24.314Z,34.50
2018-08-09T17:00:57.464Z,34.80
2018-08-09T17:03:26.386Z,34.70
2018-08-09T17:05:55.076Z,34.80
2018-08-09T17:08:23.391Z,36.00
2018-08-09T17:10:51.623Z,35.40
2018-08-09T17:13:20.373Z,35.70
2018-08-09T17:15:48.601Z,36.30
2018-08-09T17:18:17.178Z,36.20
2018-08-09T17:20:45.474Z,35.60
2018-08-09T17:23:14.268Z,36.00
2018-08-09T17:25:42.717Z,37.40
2018-08-09T17:28:11.022Z,36.40
2018-08-09T17:30:39.285Z,37.00
2018-08-09T17:33:07.747Z,38.50
2018-08-09T17:35:36.032Z,39.70
2018-08-09T17:38:04.931Z,40.60
2018-08-09T17:40:34.087Z,41.80
2018-08-09T17:43:03.229Z,42.70
2018-08-09T17:45:33.502Z,43.10
2018-08-09T17:48:02.155Z,43.70
2018-08-09T17:50:30.591Z,44.90
2018-08-09T17:53:00.556Z,44.80
2018-08-09T17:55:29.315Z,45.00
2018-08-09T17:57:57.611Z,45.60
2018-08-09T18:00:30.057Z,46.00
2018-08-09T18:02:58.669Z,46.40
2018-08-09T18:05:27.547Z,46.90
2018-08-09T18:07:56.471Z,47.20
2018-08-09T18:10:26.943Z,47.50
2018-08-09T18:12:55.720Z,47.60
2018-08-09T18:15:25.387Z,47.80
2018-08-09T18:17:54.400Z,48.10
2018-08-09T18:20:24.908Z,48.40
2018-08-09T18:22:53.714Z,48.70
2018-08-09T18:25:22.030Z,49.30
2018-08-09T18:27:50.335Z,49.40
2018-08-09T18:30:19.653Z,49.10
2018-08-09T18:32:48.057Z,49.70
2018-08-09T18:35:17.382Z,49.70
2018-08-09T18:37:45.900Z,50.20
2018-08-09T18:40:16.644Z,50.20
2018-08-09T18:42:44.946Z,51.10
2018-08-09T18:48:10.726Z,50.50
2018-08-09T18:50:38.994Z,51.10
2018-08-09T18:53:08.048Z,51.00
2018-08-09T18:55:36.775Z,51.00
2018-08-09T18:58:05.534Z,51.60
2018-08-09T19:00:33.878Z,51.70
2018-08-09T19:03:02.447Z,51.60
2018-08-09T19:05:30.978Z,52.00
2018-08-09T19:07:59.533Z,52.00
2018-08-09T19:10:29.227Z,51.90
2018-08-09T19:15:32.169Z,52.00
2018-08-09T19:18:01.930Z,52.30
2018-08-09T19:20:33.314Z,51.90
2018-08-09T19:23:02.684Z,52.20
2018-08-09T19:25:31.371Z,52.10
2018-08-09T19:28:00.213Z,52.10
2018-08-09T19:30:29.351Z,52.30
2018-08-09T19:32:57.707Z,51.90
2018-08-09T19:35:27.030Z,52.50
2018-08-09T19:37:55.341Z,52.60
2018-08-09T19:40:25.473Z,53.10
2018-08-09T19:42:54.703Z,53.00
2018-08-09T19:45:22.934Z,53.30
2018-08-09T19:47:51.209Z,53.30
2018-08-09T19:50:20.987Z,53.40
2018-08-09T19:52:49.662Z,53.40
2018-08-09T19:55:21.742Z,53.80
2018-08-09T19:57:50.576Z,53.90
2018-08-09T20:00:20.307Z,53.50
2018-08-09T20:02:49.877Z,53.80
2018-08-09T20:05:18.663Z,53.20
2018-08-09T20:07:46.907Z,53.40
2018-08-09T20:10:15.872Z,53.40
2018-08-09T20:12:45.373Z,53.30
2018-08-09T20:15:16.427Z,53.20
2018-08-09T20:17:45.423Z,53.30
2018-08-09T20:20:14.689Z,53.30
2018-08-09T20:22:43.346Z,53.90
2018-08-09T20:25:12.468Z,53.40
2018-08-09T20:27:41.121Z,53.60
2018-08-09T20:30:11.911Z,53.90
2018-08-09T20:32:40.956Z,53.90
2018-08-09T20:35:11.407Z,54.10
2018-08-09T20:37:40.055Z,54.20
2018-08-09T20:40:13.723Z,54.30
2018-08-09T20:42:42.322Z,54.80
2018-08-09T20:45:11.938Z,55.10
2018-08-09T20:47:40.185Z,54.60
2018-08-09T20:50:10.342Z,55.10
2018-08-09T20:52:39.862Z,54.60
2018-08-09T20:55:08.611Z,54.50
2018-08-09T20:57:37.185Z,54.70
2018-08-09T21:00:08.923Z,55.00
2018-08-09T21:02:51.125Z,55.20
2018-08-09T21:05:28.078Z,54.90
2018-08-09T21:07:56.911Z,55.20
2018-08-09T21:10:25.575Z,55.20
2018-08-09T21:12:54.512Z,55.40
2018-08-09T21:15:23.601Z,55.50
2018-08-09T21:17:52.304Z,55.80
2018-08-09T21:20:20.552Z,55.60
2018-08-09T21:22:49.495Z,55.80
2018-08-09T21:25:18.308Z,55.80
2018-08-09T21:27:47.359Z,56.00
2018-08-09T21:30:17.258Z,55.80
2018-08-09T21:32:46.503Z,56.00
2018-08-09T21:35:14.730Z,56.10
2018-08-09T21:37:43.506Z,55.90
2018-08-09T21:40:14.042Z,56.20
2018-08-09T21:42:42.293Z,56.80
2018-08-09T21:45:12.816Z,56.30
2018-08-09T21:47:41.162Z,56.50
2018-08-09T21:50:13.368Z,56.90
2018-08-09T21:52:42.154Z,56.70
2018-08-09T21:55:11.121Z,56.60
2018-08-09T21:57:39.350Z,57.20
2018-08-09T22:00:52.806Z,56.70
2018-08-09T22:03:23.204Z,57.30
2018-08-09T22:05:57.974Z,57.90
2018-08-09T22:08:31.454Z,58.20
2018-08-09T22:11:05.115Z,58.50
2018-08-09T22:13:39.202Z,58.50
2018-08-09T22:16:13.659Z,59.40
2018-08-09T22:18:47.690Z,60.10
2018-08-09T22:21:21.163Z,61.10
2018-08-09T22:23:49.899Z,60.60
2018-08-09T22:26:18.180Z,60.20
2018-08-09T22:28:46.627Z,60.30
2018-08-09T22:33:49.099Z,60.30
2018-08-09T22:36:17.401Z,60.00
2018-08-09T22:38:45.588Z,60.20
2018-08-09T22:41:14.660Z,60.20
2018-08-09T22:43:42.848Z,60.20
2018-08-09T22:46:11.067Z,60.50
2018-08-09T22:48:39.793Z,60.70
2018-08-09T22:51:08.014Z,61.50
2018-08-09T22:53:37.391Z,61.00
2018-08-09T22:56:05.622Z,61.60
2018-08-09T22:58:33.863Z,61.50
2018-08-09T23:01:02.160Z,62.50
2018-08-09T23:03:30.436Z,64.70
2018-08-09T23:05:59.174Z,67.70
2018-08-09T23:08:27.425Z,70.90
2018-08-09T23:10:55.687Z,73.50
2018-08-09T23:13:24.516Z,74.20
2018-08-09T23:15:53.441Z,76.30
2018-08-09T23:18:22.089Z,77.10
2018-08-09T23:20:50.342Z,76.50
2018-08-09T23:23:18.555Z,76.40
2018-08-09T23:25:47.120Z,77.50
2018-08-09T23:28:15.811Z,77.80
2018-08-09T23:30:44.134Z,80.10
2018-08-09T23:33:12.668Z,79.10
2018-08-09T23:35:41.430Z,77.90
2018-08-09T23:38:09.693Z,79.60
2018-08-09T23:40:38.427Z,79.70
2018-08-09T23:43:06.670Z,80.70
2018-08-09T23:45:34.920Z,80.70
2018-08-09T23:48:03.124Z,80.50
2018-08-09T23:50:31.342Z,79.90
2018-08-09T23:53:00.319Z,81.40
2018-08-09T23:55:29.385Z,81.30
2018-08-09T23:57:57.614Z,80.60
